Time;durP1;ratioP1;P1;durP2;ratioP2;P2;SDS_P1;SDS_P2;PMS_P1;PMS_P2;Temp;Humidity;BMP_temperature;BMP_pressure;BME280_temperature;BME280_humidity;BME280_pressure;Samples;Min_cycle;Max_cycle;Signal;HPM_P1;HPM_P2
2023/11/02 00:02:38;;;;;;;1.20;1.20;;;;;;;;;;6280895;28;20239;-69
2023/11/02 00:06:17;;;;;;;0.90;0.90;;;;;;;;;;6281091;28;20523;-71
2023/11/02 00:09:35;;;;;;;3.60;0.90;;;;;;;;;;6280664;28;20293;-70
2023/11/02 00:12:39;;;;;;;1.00;1.00;;;;;;;;;;6256088;28;20434;-72
2023/11/02 00:15:45;;;;;;;1.00;1.00;;;;;;;;;;6256616;28;20585;-70
2023/11/02 00:18:50;;;;;;;0.90;0.90;;;;;;;;;;6256315;28;20294;-70
2023/11/02 00:21:54;;;;;;;3.17;1.20;;;;;;;;;;6256616;28;20312;-69
2023/11/02 00:25:02;;;;;;;0.90;0.90;;;;;;;;;;6255843;28;20295;-70
2023/11/02 00:28:09;;;;;;;0.80;0.80;;;;;;;;;;6255639;28;20481;-69
2023/11/02 00:31:12;;;;;;;0.90;0.90;;;;;;;;;;6254178;28;20301;-72
2023/11/02 00:34:18;;;;;;;0.80;0.80;;;;;;;;;;6255466;28;20297;-70
2023/11/02 00:37:22;;;;;;;1.00;1.00;;;;;;;;;;6260331;28;20301;-70
2023/11/02 00:40:25;;;;;;;0.80;0.80;;;;;;;;;;6260873;28;20349;-70
2023/11/02 00:43:29;;;;;;;1.20;1.10;;;;;;;;;;6258372;28;20302;-71
2023/11/02 00:46:34;;;;;;;1.00;1.00;;;;;;;;;;6260743;28;20298;-69
2023/11/02 00:49:39;;;;;;;0.77;0.77;;;;;;;;;;6258696;28;20576;-70
2023/11/02 00:52:43;;;;;;;1.10;1.00;;;;;;;;;;6256453;28;20602;-76
2023/11/02 00:55:46;;;;;;;1.37;0.83;;;;;;;;;;6260804;28;20292;-70
2023/11/02 00:58:52;;;;;;;0.90;0.90;;;;;;;;;;6258616;28;20603;-71
2023/11/02 01:01:56;;;;;;;1.00;1.00;;;;;;;;;;6259192;28;20583;-70
2023/11/02 01:05:03;;;;;;;0.90;0.90;;;;;;;;;;6257941;28;20294;-69
2023/11/02 01:08:06;;;;;;;1.07;0.90;;;;;;;;;;6259771;28;20292;-70
2023/11/02 01:11:10;;;;;;;0.90;0.90;;;;;;;;;;6258743;28;20325;-69
2023/11/02 01:14:39;;;;;;;0.80;0.80;;;;;;;;;;6259383;28;20324;-70
2023/11/02 01:17:43;;;;;;;0.90;0.90;;;;;;;;;;6258529;28;20266;-69
2023/11/02 01:20:57;;;;;;;0.80;0.80;;;;;;;;;;6259968;28;20282;-71
2023/11/02 01:24:03;;;;;;;0.83;0.83;;;;;;;;;;6259409;28;20302;-70
2023/11/02 01:27:08;;;;;;;0.80;0.80;;;;;;;;;;6257465;28;20290;-69
2023/11/02 01:30:48;;;;;;;0.90;0.90;;;;;;;;;;6258068;28;20302;-69
2023/11/02 01:34:00;;;;;;;0.80;0.80;;;;;;;;;;6246232;28;20375;-70
2023/11/02 01:37:05;;;;;;;0.80;0.80;;;;;;;;;;6257978;28;20301;-69
2023/11/02 01:40:11;;;;;;;0.90;0.90;;;;;;;;;;6257629;28;20235;-70
2023/11/02 01:43:19;;;;;;;1.50;1.00;;;;;;;;;;6258978;28;20298;-71
2023/11/02 01:46:26;;;;;;;5.60;4.53;;;;;;;;;;6258892;28;20311;-70
2023/11/02 01:49:46;;;;;;;13.93;6.30;;;;;;;;;;6258447;28;20302;-69
2023/11/02 01:53:02;;;;;;;12.57;5.87;;;;;;;;;;6256715;28;20298;-70
2023/11/02 01:56:13;;;;;;;16.17;6.83;;;;;;;;;;6258712;28;20594;-69
2023/11/02 01:59:26;;;;;;;11.17;5.90;;;;;;;;;;6256851;28;20375;-69
2023/11/02 02:02:32;;;;;;;11.97;5.70;;;;;;;;;;6257480;28;20305;-70
2023/11/02 02:05:37;;;;;;;7.47;4.73;;;;;;;;;;6255901;28;20614;-69
2023/11/02 02:08:50;;;;;;;4.00;3.10;;;;;;;;;;6256200;28;20329;-69
2023/11/02 02:12:00;;;;;;;4.67;3.20;;;;;;;;;;6277107;28;20320;-71
2023/11/02 02:15:12;;;;;;;4.70;3.90;;;;;;;;;;6281077;28;20326;-70
2023/11/02 02:18:20;;;;;;;7.30;4.63;;;;;;;;;;6282907;28;20353;-70
2023/11/02 02:21:30;;;;;;;14.67;6.90;;;;;;;;;;6281418;28;20325;-69
2023/11/02 02:24:44;;;;;;;10.67;5.43;;;;;;;;;;6282433;28;20310;-70
2023/11/02 02:28:18;;;;;;;4.87;3.60;;;;;;;;;;6280739;28;20297;-69
2023/11/02 02:31:41;;;;;;;2.83;2.63;;;;;;;;;;6280540;28;20286;-69
2023/11/02 02:34:56;;;;;;;3.33;3.13;;;;;;;;;;6280265;28;20294;-70
2023/11/02 02:38:05;;;;;;;2.87;2.67;;;;;;;;;;6282076;28;20291;-70
2023/11/02 02:41:10;;;;;;;3.10;2.90;;;;;;;;;;6280200;28;20313;-71
2023/11/02 02:44:15;;;;;;;1.77;1.77;;;;;;;;;;6281858;28;20313;-70
2023/11/02 02:47:20;;;;;;;1.40;1.40;;;;;;;;;;6282058;28;20288;-69
2023/11/02 02:50:28;;;;;;;1.30;1.30;;;;;;;;;;6281618;28;20298;-69
2023/11/02 02:53:33;;;;;;;1.40;1.40;;;;;;;;;;6279673;28;20301;-71
2023/11/02 02:56:38;;;;;;;1.30;1.30;;;;;;;;;;6279729;28;20285;-68
2023/11/02 02:59:43;;;;;;;1.40;1.30;;;;;;;;;;6280919;28;20595;-69
2023/11/02 03:02:47;;;;;;;1.40;1.30;;;;;;;;;;6281319;28;20275;-70
2023/11/02 03:05:54;;;;;;;1.30;1.30;;;;;;;;;;6281896;28;20254;-72
2023/11/02 03:09:00;;;;;;;1.30;1.30;;;;;;;;;;6281572;28;20282;-70
2023/11/02 03:12:06;;;;;;;1.40;1.40;;;;;;;;;;6282089;28;20543;-70
2023/11/02 03:15:12;;;;;;;1.27;1.27;;;;;;;;;;6281632;28;20286;-70
2023/11/02 03:18:17;;;;;;;1.70;1.50;;;;;;;;;;6281354;28;20309;-69
2023/11/02 03:21:22;;;;;;;1.33;1.33;;;;;;;;;;6281737;28;20301;-69
2023/11/02 03:24:30;;;;;;;1.50;1.50;;;;;;;;;;6279218;28;20298;-70
2023/11/02 03:27:44;;;;;;;1.70;1.70;;;;;;;;;;6281516;28;20397;-71
2023/11/02 03:30:55;;;;;;;1.77;1.77;;;;;;;;;;6279010;28;20302;-71
2023/11/02 03:34:06;;;;;;;1.70;1.70;;;;;;;;;;6280682;28;20618;-71
2023/11/02 03:37:16;;;;;;;1.77;1.70;;;;;;;;;;6279452;28;20308;-71
2023/11/02 03:40:25;;;;;;;1.50;1.50;;;;;;;;;;6280677;28;20622;-71
2023/11/02 03:43:36;;;;;;;1.40;1.40;;;;;;;;;;6278735;28;20612;-70
2023/11/02 03:46:48;;;;;;;1.70;1.60;;;;;;;;;;6279616;28;20306;-70
2023/11/02 03:50:03;;;;;;;1.50;1.50;;;;;;;;;;6278820;28;20510;-69
2023/11/02 03:53:14;;;;;;;1.50;1.50;;;;;;;;;;6278542;28;20301;-71
2023/11/02 03:56:36;;;;;;;1.57;1.47;;;;;;;;;;6281404;28;20618;-70
2023/11/02 03:59:47;;;;;;;1.30;1.30;;;;;;;;;;6279830;28;20381;-68
2023/11/02 04:02:55;;;;;;;1.30;1.30;;;;;;;;;;6280242;28;20250;-70
2023/11/02 04:06:01;;;;;;;1.40;1.40;;;;;;;;;;6280327;28;20357;-70
2023/11/02 04:09:07;;;;;;;1.43;1.43;;;;;;;;;;6280151;28;20289;-71
2023/11/02 04:12:17;;;;;;;1.40;1.40;;;;;;;;;;6280433;28;20351;-72
2023/11/02 04:15:20;;;;;;;1.50;1.50;;;;;;;;;;6280103;28;20472;-70
2023/11/02 04:18:24;;;;;;;1.33;1.23;;;;;;;;;;6281535;28;20313;-70
2023/11/02 04:21:29;;;;;;;1.40;1.40;;;;;;;;;;6280178;28;20297;-70
2023/11/02 04:24:34;;;;;;;1.50;1.47;;;;;;;;;;6279871;28;20309;-70
2023/11/02 04:27:38;;;;;;;1.40;1.40;;;;;;;;;;6280270;28;20359;-70
2023/11/02 04:30:42;;;;;;;1.20;1.20;;;;;;;;;;6279972;28;20301;-70
2023/11/02 04:33:46;;;;;;;1.50;1.40;;;;;;;;;;6280618;28;20487;-70
2023/11/02 04:36:50;;;;;;;1.30;1.30;;;;;;;;;;6280443;28;20299;-70
2023/11/02 04:39:55;;;;;;;1.37;1.37;;;;;;;;;;6279828;28;20318;-72
2023/11/02 04:42:58;;;;;;;2.87;1.60;;;;;;;;;;6280323;28;20309;-70
2023/11/02 04:46:02;;;;;;;1.30;1.30;;;;;;;;;;6279577;28;20304;-71
2023/11/02 04:49:06;;;;;;;1.47;1.37;;;;;;;;;;6279514;28;20317;-71
2023/11/02 04:52:11;;;;;;;1.20;1.20;;;;;;;;;;6279962;28;20305;-70
2023/11/02 04:55:16;;;;;;;2.00;1.10;;;;;;;;;;6278457;28;20293;-70
2023/11/02 04:58:20;;;;;;;1.10;1.10;;;;;;;;;;6280031;28;20322;-70
2023/11/02 05:01:24;;;;;;;1.10;1.10;;;;;;;;;;6279680;28;20308;-72
2023/11/02 05:04:28;;;;;;;1.10;1.10;;;;;;;;;;6279389;28;20304;-70
2023/11/02 05:07:32;;;;;;;1.10;1.10;;;;;;;;;;6279802;28;20460;-70
2023/11/02 05:10:37;;;;;;;1.10;1.10;;;;;;;;;;6279319;28;20294;-70
2023/11/02 05:13:41;;;;;;;1.03;1.03;;;;;;;;;;6279597;28;20302;-72
2023/11/02 05:16:45;;;;;;;1.30;1.30;;;;;;;;;;6279940;28;20377;-70
2023/11/02 05:19:49;;;;;;;0.90;0.90;;;;;;;;;;6279854;28;20321;-71
2023/11/02 05:22:53;;;;;;;1.00;1.00;;;;;;;;;;6281995;28;20435;-69
2023/11/02 05:25:58;;;;;;;1.00;1.00;;;;;;;;;;6284733;28;20572;-70
2023/11/02 05:29:02;;;;;;;1.90;1.00;;;;;;;;;;6283847;28;20481;-70
2023/11/02 05:32:05;;;;;;;1.00;1.00;;;;;;;;;;6284327;28;20333;-70
2023/11/02 05:35:10;;;;;;;0.90;0.90;;;;;;;;;;6284199;28;20326;-70
2023/11/02 05:38:14;;;;;;;1.33;1.00;;;;;;;;;;6284586;28;20302;-71
2023/11/02 05:41:19;;;;;;;0.97;0.97;;;;;;;;;;6284713;28;20297;-71
2023/11/02 05:44:23;;;;;;;1.00;1.00;;;;;;;;;;6283863;28;20613;-71
2023/11/02 05:47:26;;;;;;;1.00;1.00;;;;;;;;;;6284290;28;20538;-71
2023/11/02 05:50:30;;;;;;;1.33;1.23;;;;;;;;;;6283867;28;20301;-70
2023/11/02 05:53:34;;;;;;;1.20;1.20;;;;;;;;;;6281052;28;20453;-69
2023/11/02 05:56:39;;;;;;;0.83;0.83;;;;;;;;;;6284343;28;20257;-69
2023/11/02 05:59:42;;;;;;;1.00;1.00;;;;;;;;;;6283673;28;20293;-69
2023/11/02 06:02:47;;;;;;;1.63;1.03;;;;;;;;;;6284022;28;20575;-69
2023/11/02 06:05:51;;;;;;;1.33;1.00;;;;;;;;;;6283397;28;20297;-69
2023/11/02 06:08:54;;;;;;;2.97;1.80;;;;;;;;;;6283110;28;20240;-69
2023/11/02 06:11:59;;;;;;;1.00;1.00;;;;;;;;;;6283430;28;20289;-69
2023/11/02 06:15:05;;;;;;;1.20;1.20;;;;;;;;;;6283014;28;20289;-70
2023/11/02 06:18:09;;;;;;;1.10;1.10;;;;;;;;;;6283769;28;20295;-71
2023/11/02 06:21:12;;;;;;;0.90;0.90;;;;;;;;;;6282812;28;20309;-70
2023/11/02 06:24:17;;;;;;;1.00;1.00;;;;;;;;;;6283111;28;20645;-70
2023/11/02 06:27:22;;;;;;;1.10;1.10;;;;;;;;;;6283743;28;20305;-69
2023/11/02 06:30:26;;;;;;;0.90;0.90;;;;;;;;;;6283732;28;20306;-69
2023/11/02 06:33:31;;;;;;;1.03;1.03;;;;;;;;;;6282400;28;20297;-71
2023/11/02 06:36:35;;;;;;;1.00;1.00;;;;;;;;;;6282762;28;20333;-70
2023/11/02 06:39:39;;;;;;;1.10;1.10;;;;;;;;;;6282271;28;20341;-70
2023/11/02 06:42:44;;;;;;;1.10;1.10;;;;;;;;;;6282755;28;20592;-72
2023/11/02 06:45:48;;;;;;;1.00;1.00;;;;;;;;;;6282108;28;20300;-71
2023/11/02 06:48:52;;;;;;;1.00;1.00;;;;;;;;;;6282024;28;20292;-71
2023/11/02 06:51:56;;;;;;;1.23;1.13;;;;;;;;;;6281005;28;20509;-71
2023/11/02 06:55:00;;;;;;;1.20;1.20;;;;;;;;;;6280470;28;20306;-69
2023/11/02 06:58:05;;;;;;;1.03;1.03;;;;;;;;;;6282525;28;20304;-69
2023/11/02 07:01:09;;;;;;;1.17;1.17;;;;;;;;;;6281949;28;20310;-70
2023/11/02 07:04:13;;;;;;;1.30;1.20;;;;;;;;;;6279819;28;20492;-70
2023/11/02 07:07:17;;;;;;;1.20;1.20;;;;;;;;;;6282040;28;20305;-72
2023/11/02 07:10:20;;;;;;;1.20;1.20;;;;;;;;;;6281747;28;20297;-73
2023/11/02 07:13:25;;;;;;;1.00;1.00;;;;;;;;;;6282084;28;20289;-69
2023/11/02 07:16:29;;;;;;;1.10;1.10;;;;;;;;;;6281241;28;20296;-73
2023/11/02 07:19:33;;;;;;;1.27;1.27;;;;;;;;;;6281684;28;20312;-71
2023/11/02 07:22:37;;;;;;;1.10;1.10;;;;;;;;;;6280432;28;20257;-71
2023/11/02 07:25:41;;;;;;;1.10;1.10;;;;;;;;;;6281445;28;20301;-70
2023/11/02 07:28:46;;;;;;;1.10;1.10;;;;;;;;;;6281186;28;20293;-71
2023/11/02 07:31:50;;;;;;;1.20;1.20;;;;;;;;;;6281621;28;20309;-70
2023/11/02 07:34:53;;;;;;;1.43;1.30;;;;;;;;;;6281419;28;20290;-72
2023/11/02 07:37:57;;;;;;;1.10;1.10;;;;;;;;;;6281337;28;20290;-71
2023/11/02 07:41:01;;;;;;;1.60;1.50;;;;;;;;;;6280813;28;20353;-71
2023/11/02 07:44:07;;;;;;;2.43;1.33;;;;;;;;;;6280418;28;20306;-71
2023/11/02 07:47:10;;;;;;;2.17;1.40;;;;;;;;;;6281328;28;20382;-70
2023/11/02 07:50:15;;;;;;;1.30;1.30;;;;;;;;;;6280800;28;20297;-69
2023/11/02 07:53:19;;;;;;;1.20;1.20;;;;;;;;;;6279699;28;20318;-71
2023/11/02 07:56:26;;;;;;;1.30;1.20;;;;;;;;;;6280615;28;20310;-69
2023/11/02 07:59:31;;;;;;;1.50;1.50;;;;;;;;;;6280793;28;20321;-70
2023/11/02 08:02:35;;;;;;;1.20;1.20;;;;;;;;;;6280149;28;20298;-70
2023/11/02 08:05:39;;;;;;;1.27;1.27;;;;;;;;;;6280402;28;20313;-69
2023/11/02 08:08:44;;;;;;;1.30;1.30;;;;;;;;;;6280551;28;20242;-70
2023/11/02 08:11:47;;;;;;;1.23;1.23;;;;;;;;;;6280817;28;20410;-69
2023/11/02 08:14:52;;;;;;;2.53;1.37;;;;;;;;;;6280645;28;20306;-69
2023/11/02 08:17:56;;;;;;;1.13;1.13;;;;;;;;;;6280633;28;20292;-71
2023/11/02 08:21:00;;;;;;;1.37;1.30;;;;;;;;;;6280699;28;20544;-71
2023/11/02 08:24:04;;;;;;;1.00;1.00;;;;;;;;;;6280098;28;20290;-71
2023/11/02 08:27:08;;;;;;;1.03;1.00;;;;;;;;;;6280881;28;20618;-71
2023/11/02 08:30:15;;;;;;;2.07;1.10;;;;;;;;;;6280291;28;20607;-71
2023/11/02 08:33:19;;;;;;;1.20;1.20;;;;;;;;;;6281034;28;20298;-72
2023/11/02 08:36:23;;;;;;;1.23;1.13;;;;;;;;;;6280116;28;20301;-70
2023/11/02 08:39:27;;;;;;;1.20;1.20;;;;;;;;;;6280374;28;20558;-71
2023/11/02 08:42:33;;;;;;;1.40;1.40;;;;;;;;;;6281017;28;20291;-70
2023/11/02 08:45:38;;;;;;;1.47;1.47;;;;;;;;;;6280036;28;20325;-70
2023/11/02 08:48:42;;;;;;;1.27;1.23;;;;;;;;;;6279950;28;20297;-71
2023/11/02 08:51:46;;;;;;;4.23;1.47;;;;;;;;;;6280657;28;20294;-71
2023/11/02 08:54:50;;;;;;;1.63;1.30;;;;;;;;;;6278541;28;20298;-70
2023/11/02 08:57:54;;;;;;;2.07;1.40;;;;;;;;;;6284183;28;20297;-70
2023/11/02 09:00:59;;;;;;;1.40;1.40;;;;;;;;;;6285192;28;20594;-70
2023/11/02 09:04:03;;;;;;;1.33;1.23;;;;;;;;;;6285021;28;20239;-71
2023/11/02 09:07:06;;;;;;;1.10;1.10;;;;;;;;;;6285309;28;20329;-69
2023/11/02 09:10:10;;;;;;;1.37;1.30;;;;;;;;;;6284739;28;20298;-70
2023/11/02 09:13:14;;;;;;;1.60;1.30;;;;;;;;;;6284883;28;20286;-70
2023/11/02 09:16:21;;;;;;;1.60;1.40;;;;;;;;;;6284396;28;20305;-71
2023/11/02 09:19:25;;;;;;;1.10;1.10;;;;;;;;;;6284448;28;20310;-70
2023/11/02 09:22:28;;;;;;;1.13;1.13;;;;;;;;;;6284351;28;20337;-69
2023/11/02 09:25:34;;;;;;;1.20;1.20;;;;;;;;;;6282298;28;20429;-70
2023/11/02 09:28:38;;;;;;;1.10;1.10;;;;;;;;;;6284237;28;20594;-70
2023/11/02 09:31:43;;;;;;;1.30;1.30;;;;;;;;;;6284545;28;20311;-70
2023/11/02 09:35:05;;;;;;;1.30;1.30;;;;;;;;;;6284245;28;20307;-71
2023/11/02 09:38:09;;;;;;;1.00;1.00;;;;;;;;;;6284694;28;20297;-71
2023/11/02 09:41:13;;;;;;;0.97;0.97;;;;;;;;;;6284148;28;20331;-70
2023/11/02 09:44:16;;;;;;;1.07;1.07;;;;;;;;;;6283950;28;20390;-72
2023/11/02 09:47:21;;;;;;;1.20;1.20;;;;;;;;;;6284539;28;20291;-70
2023/11/02 09:50:26;;;;;;;1.10;1.10;;;;;;;;;;6283856;28;20302;-70
2023/11/02 09:53:29;;;;;;;1.13;1.13;;;;;;;;;;6279985;28;20326;-69
2023/11/02 09:56:33;;;;;;;1.50;1.50;;;;;;;;;;6283133;28;20302;-71
2023/11/02 09:59:42;;;;;;;1.53;1.53;;;;;;;;;;6283243;28;20310;-71
2023/11/02 10:02:52;;;;;;;1.60;1.50;;;;;;;;;;6283771;28;20267;-70
2023/11/02 10:05:58;;;;;;;1.10;1.10;;;;;;;;;;6283094;28;20301;-70
2023/11/02 10:09:03;;;;;;;1.67;1.60;;;;;;;;;;6283232;28;20409;-71
2023/11/02 10:12:07;;;;;;;1.20;1.20;;;;;;;;;;6283373;28;20381;-71
2023/11/02 10:15:16;;;;;;;1.20;1.10;;;;;;;;;;6283278;28;20295;-70
2023/11/02 10:18:22;;;;;;;1.10;1.10;;;;;;;;;;6283507;28;20299;-71
2023/11/02 10:21:26;;;;;;;1.20;1.20;;;;;;;;;;6283091;28;20314;-70
2023/11/02 10:24:31;;;;;;;1.20;1.20;;;;;;;;;;6283202;28;20366;-70
2023/11/02 10:27:38;;;;;;;1.40;1.30;;;;;;;;;;6283382;28;20295;-70
2023/11/02 10:30:42;;;;;;;2.57;1.40;;;;;;;;;;6283223;28;20329;-70
2023/11/02 10:33:50;;;;;;;1.30;1.30;;;;;;;;;;6283754;28;20298;-70
2023/11/02 10:36:56;;;;;;;1.30;1.30;;;;;;;;;;6283923;28;20287;-70
2023/11/02 10:40:00;;;;;;;1.30;1.30;;;;;;;;;;6283752;28;20291;-72
2023/11/02 10:43:04;;;;;;;1.40;1.40;;;;;;;;;;6282263;28;20310;-70
2023/11/02 10:46:11;;;;;;;1.50;1.50;;;;;;;;;;6282796;28;20303;-71
2023/11/02 10:49:18;;;;;;;1.23;1.23;;;;;;;;;;6282432;28;20286;-71
2023/11/02 10:52:29;;;;;;;2.00;1.20;;;;;;;;;;6282876;28;20299;-71
2023/11/02 10:55:39;;;;;;;1.27;1.27;;;;;;;;;;6280961;28;20290;-72
2023/11/02 10:58:43;;;;;;;1.30;1.30;;;;;;;;;;6282630;28;20294;-70
2023/11/02 11:01:47;;;;;;;1.30;1.30;;;;;;;;;;6283170;28;20306;-70
2023/11/02 11:04:53;;;;;;;1.20;1.20;;;;;;;;;;6282341;28;20318;-72
2023/11/02 11:08:02;;;;;;;1.20;1.10;;;;;;;;;;6282837;28;20294;-71
2023/11/02 11:11:06;;;;;;;1.67;1.33;;;;;;;;;;6282581;28;20291;-72
2023/11/02 11:14:10;;;;;;;1.23;1.23;;;;;;;;;;6281415;28;20411;-72
2023/11/02 11:17:14;;;;;;;1.70;1.40;;;;;;;;;;6282325;28;20319;-71
2023/11/02 11:20:20;;;;;;;1.10;1.10;;;;;;;;;;6281110;28;20308;-71
2023/11/02 11:23:24;;;;;;;1.53;1.40;;;;;;;;;;6282223;28;20615;-71
2023/11/02 11:26:28;;;;;;;2.60;1.13;;;;;;;;;;6281910;28;20423;-72
2023/11/02 11:29:34;;;;;;;1.43;1.20;;;;;;;;;;6281985;28;20374;-70
2023/11/02 11:32:38;;;;;;;1.27;1.27;;;;;;;;;;6281790;28;20616;-71
2023/11/02 11:36:17;;;;;;;1.20;1.20;;;;;;;;;;6281948;28;20314;-70
2023/11/02 11:39:34;;;;;;;1.10;1.10;;;;;;;;;;6281870;28;20295;-75
2023/11/02 11:43:01;;;;;;;1.07;1.07;;;;;;;;;;6281806;28;20315;-70
2023/11/02 11:46:08;;;;;;;1.15;1.15;;;;;;;;;;6280123;28;20323;-72
2023/11/02 11:49:47;;;;;;;1.97;1.33;;;;;;;;;;6280867;28;20290;-69
2023/11/02 11:52:51;;;;;;;1.10;1.10;;;;;;;;;;6278869;28;20302;-71
2023/11/02 11:56:01;;;;;;;1.20;1.20;;;;;;;;;;6280360;28;20307;-71
2023/11/02 11:59:05;;;;;;;2.70;1.30;;;;;;;;;;6280379;28;20291;-70
2023/11/02 12:02:35;;;;;;;1.60;1.30;;;;;;;;;;6280659;28;20642;-71
2023/11/02 12:05:55;;;;;;;1.17;1.07;;;;;;;;;;6279363;28;20398;-71
2023/11/02 12:09:00;;;;;;;1.27;1.27;;;;;;;;;;6278907;28;20275;-71
2023/11/02 12:12:06;;;;;;;1.20;1.20;;;;;;;;;;6280538;28;20604;-70
2023/11/02 12:15:17;;;;;;;1.25;1.25;;;;;;;;;;6280298;28;20611;-70
2023/11/02 12:18:24;;;;;;;1.08;1.08;;;;;;;;;;6280680;28;20298;-71
2023/11/02 12:21:28;;;;;;;1.27;1.20;;;;;;;;;;6280040;28;20374;-69
2023/11/02 12:24:37;;;;;;;1.37;1.37;;;;;;;;;;6279979;28;20299;-70
2023/11/02 12:27:55;;;;;;;2.03;1.25;;;;;;;;;;6280249;28;20312;-71
2023/11/02 12:30:59;;;;;;;1.52;1.48;;;;;;;;;;6278732;28;20442;-70
2023/11/02 12:34:05;;;;;;;1.45;1.45;;;;;;;;;;6280039;28;20295;-71
2023/11/02 12:37:09;;;;;;;1.90;1.30;;;;;;;;;;6280254;28;20622;-71
2023/11/02 12:40:13;;;;;;;4.80;1.40;;;;;;;;;;6279717;28;20536;-70
2023/11/02 12:46:52;;;;;;;1.48;1.23;;;;;;;;;;6315710;27;20779;-71
2023/11/02 12:49:56;;;;;;;1.10;1.10;;;;;;;;;;6302590;28;20310;-70
2023/11/02 12:53:00;;;;;;;1.48;1.30;;;;;;;;;;6300830;28;20404;-71
2023/11/02 12:56:04;;;;;;;1.30;1.30;;;;;;;;;;6302757;28;20290;-72
2023/11/02 12:59:08;;;;;;;1.00;1.00;;;;;;;;;;6302235;28;20318;-72
2023/11/02 13:02:24;;;;;;;1.80;1.30;;;;;;;;;;6302413;28;20330;-70
2023/11/02 13:05:35;;;;;;;1.33;1.33;;;;;;;;;;6301877;28;20294;-69
2023/11/02 13:08:41;;;;;;;1.27;1.20;;;;;;;;;;6300800;28;20278;-71
2023/11/02 13:11:47;;;;;;;1.08;1.08;;;;;;;;;;6302008;28;20251;-69
2023/11/02 13:14:52;;;;;;;2.93;1.20;;;;;;;;;;6301695;28;20291;-70
2023/11/02 13:17:58;;;;;;;1.10;1.10;;;;;;;;;;6302091;28;20469;-69
2023/11/02 13:21:02;;;;;;;1.20;1.20;;;;;;;;;;6301458;28;20293;-71
2023/11/02 13:24:08;;;;;;;1.50;1.45;;;;;;;;;;6301474;28;20639;-70
2023/11/02 13:27:12;;;;;;;1.20;1.20;;;;;;;;;;6301907;28;20286;-70
2023/11/02 13:30:16;;;;;;;2.05;1.30;;;;;;;;;;6301369;28;20302;-72
2023/11/02 13:33:22;;;;;;;1.33;1.20;;;;;;;;;;6301770;28;20293;-72
2023/11/02 13:36:29;;;;;;;2.45;1.48;;;;;;;;;;6325853;27;20304;-70
2023/11/02 13:39:34;;;;;;;2.72;1.20;;;;;;;;;;6326100;27;20301;-69
2023/11/02 13:42:37;;;;;;;1.13;1.13;;;;;;;;;;6326409;27;20298;-70
2023/11/02 13:45:42;;;;;;;1.10;1.10;;;;;;;;;;6325736;27;20349;-69
2023/11/02 13:48:48;;;;;;;1.13;1.13;;;;;;;;;;6325746;27;20297;-69
2023/11/02 13:51:52;;;;;;;1.10;1.10;;;;;;;;;;6326028;27;20297;-69
2023/11/02 13:54:56;;;;;;;1.00;1.00;;;;;;;;;;6323773;27;20302;-71
2023/11/02 13:57:59;;;;;;;1.10;1.10;;;;;;;;;;6309634;28;20298;-72
2023/11/02 14:01:04;;;;;;;1.30;1.30;;;;;;;;;;6308568;28;20303;-69
2023/11/02 14:04:09;;;;;;;1.02;1.02;;;;;;;;;;6308488;28;20302;-69
2023/11/02 14:07:16;;;;;;;2.30;1.20;;;;;;;;;;6309115;28;20294;-69
2023/11/02 14:10:22;;;;;;;1.50;1.40;;;;;;;;;;6308580;28;20286;-70
2023/11/02 14:13:25;;;;;;;3.33;1.40;;;;;;;;;;6309332;28;20286;-68
2023/11/02 14:16:29;;;;;;;1.00;1.00;;;;;;;;;;6308096;28;20298;-69
2023/11/02 14:19:35;;;;;;;2.05;1.27;;;;;;;;;;6308440;28;20381;-71
2023/11/02 14:22:39;;;;;;;1.30;1.30;;;;;;;;;;6308722;28;20298;-70
2023/11/02 14:25:43;;;;;;;3.38;1.15;;;;;;;;;;6308236;28;20294;-72
2023/11/02 14:28:46;;;;;;;2.67;1.50;;;;;;;;;;6308296;28;20287;-70
2023/11/02 14:31:50;;;;;;;4.55;1.23;;;;;;;;;;6308750;28;20294;-69
2023/11/02 14:34:55;;;;;;;1.10;1.10;;;;;;;;;;6308169;28;20298;-69
2023/11/02 14:37:59;;;;;;;1.42;1.25;;;;;;;;;;6308373;28;20298;-70
2023/11/02 14:41:03;;;;;;;1.00;1.00;;;;;;;;;;6307863;28;20311;-70
2023/11/02 14:44:07;;;;;;;1.10;1.10;;;;;;;;;;6307512;28;20358;-70
2023/11/02 14:47:12;;;;;;;1.20;1.20;;;;;;;;;;6307941;28;20290;-71
2023/11/02 14:50:17;;;;;;;3.45;1.30;;;;;;;;;;6307602;28;20298;-70
2023/11/02 14:53:21;;;;;;;1.20;1.20;;;;;;;;;;6306125;28;20294;-69
2023/11/02 14:56:25;;;;;;;1.20;1.20;;;;;;;;;;6307361;28;20479;-70
2023/11/02 14:59:28;;;;;;;3.00;1.50;;;;;;;;;;6307531;28;20298;-73
2023/11/02 15:02:33;;;;;;;1.63;1.10;;;;;;;;;;6307958;28;20290;-69
2023/11/02 15:05:38;;;;;;;4.88;1.55;;;;;;;;;;6299907;28;20309;-71
2023/11/02 15:08:42;;;;;;;1.42;1.35;;;;;;;;;;6306507;28;20251;-70
2023/11/02 15:11:46;;;;;;;2.13;1.45;;;;;;;;;;6308178;28;20301;-70
2023/11/02 15:14:50;;;;;;;1.48;1.38;;;;;;;;;;6307989;28;20302;-71
2023/11/02 15:17:53;;;;;;;1.38;1.27;;;;;;;;;;6308012;28;20298;-72
2023/11/02 15:20:58;;;;;;;1.30;1.20;;;;;;;;;;6307630;28;20285;-70
2023/11/02 15:24:02;;;;;;;1.27;1.23;;;;;;;;;;6307039;28;20294;-69
2023/11/02 15:27:06;;;;;;;1.30;1.20;;;;;;;;;;6307399;28;20294;-71
2023/11/02 15:30:11;;;;;;;1.38;1.38;;;;;;;;;;6307291;28;20294;-69
2023/11/02 15:33:15;;;;;;;1.50;1.30;;;;;;;;;;6308012;28;20481;-71
2023/11/02 15:36:20;;;;;;;1.20;1.20;;;;;;;;;;6306873;28;20317;-70
2023/11/02 15:39:24;;;;;;;1.27;1.20;;;;;;;;;;6306766;28;20289;-70
2023/11/02 15:42:30;;;;;;;1.30;1.15;;;;;;;;;;6307061;28;20293;-70
2023/11/02 15:45:33;;;;;;;1.13;1.13;;;;;;;;;;6306407;28;20314;-69
2023/11/02 15:48:37;;;;;;;2.17;1.30;;;;;;;;;;6306347;28;20338;-71
2023/11/02 15:51:44;;;;;;;1.42;1.30;;;;;;;;;;6306878;28;20299;-70
2023/11/02 15:54:48;;;;;;;1.40;1.30;;;;;;;;;;6304210;28;20393;-71
2023/11/02 15:57:52;;;;;;;1.60;1.50;;;;;;;;;;6306681;28;20290;-69
2023/11/02 16:00:56;;;;;;;1.30;1.30;;;;;;;;;;6306002;28;20307;-70
2023/11/02 16:04:00;;;;;;;1.30;1.30;;;;;;;;;;6306527;28;20305;-71
2023/11/02 16:07:05;;;;;;;1.27;1.27;;;;;;;;;;6306733;28;20338;-68
2023/11/02 16:10:12;;;;;;;1.25;1.25;;;;;;;;;;6305928;28;20309;-70
2023/11/02 16:13:17;;;;;;;1.58;1.48;;;;;;;;;;6306062;28;20299;-71
2023/11/02 16:16:20;;;;;;;1.50;1.50;;;;;;;;;;6305685;28;20306;-71
2023/11/02 16:19:28;;;;;;;1.42;1.42;;;;;;;;;;6305413;28;20570;-69
2023/11/02 16:22:35;;;;;;;1.10;1.10;;;;;;;;;;6306389;28;20306;-71
2023/11/02 16:25:39;;;;;;;1.42;1.23;;;;;;;;;;6304458;28;20627;-71
2023/11/02 16:28:43;;;;;;;1.42;1.30;;;;;;;;;;6305655;28;20298;-74
2023/11/02 16:31:47;;;;;;;1.40;1.40;;;;;;;;;;6306520;28;20302;-71
2023/11/02 16:34:51;;;;;;;3.38;1.20;;;;;;;;;;6305891;28;20322;-69
2023/11/02 16:38:18;;;;;;;1.40;1.40;;;;;;;;;;6305919;28;20290;-70
2023/11/02 16:41:22;;;;;;;2.58;1.48;;;;;;;;;;6305333;28;20290;-71
2023/11/02 16:44:27;;;;;;;1.45;1.45;;;;;;;;;;6305946;28;20318;-71
2023/11/02 16:47:31;;;;;;;1.30;1.30;;;;;;;;;;6305774;28;20367;-70
2023/11/02 16:50:35;;;;;;;1.50;1.40;;;;;;;;;;6304411;28;20601;-71
2023/11/02 16:53:41;;;;;;;2.05;1.50;;;;;;;;;;6303274;28;20267;-69
2023/11/02 16:56:45;;;;;;;1.42;1.42;;;;;;;;;;6305710;28;20322;-70
2023/11/02 16:59:49;;;;;;;1.38;1.38;;;;;;;;;;6305315;28;20297;-72
2023/11/02 17:02:53;;;;;;;1.70;1.70;;;;;;;;;;6305490;28;20297;-70
2023/11/02 17:05:57;;;;;;;1.88;1.70;;;;;;;;;;6305897;28;20302;-71
2023/11/02 17:09:03;;;;;;;3.40;1.95;;;;;;;;;;6304744;28;20294;-70
2023/11/02 17:12:08;;;;;;;2.33;2.20;;;;;;;;;;6305408;28;20301;-70
2023/11/02 17:15:12;;;;;;;3.50;2.42;;;;;;;;;;6304915;28;20310;-71
2023/11/02 17:18:17;;;;;;;2.30;2.08;;;;;;;;;;6305233;28;20465;-70
2023/11/02 17:21:26;;;;;;;2.42;2.22;;;;;;;;;;6305143;28;20306;-71
2023/11/02 17:24:34;;;;;;;4.88;2.60;;;;;;;;;;6305093;28;20294;-71
2023/11/02 17:27:38;;;;;;;2.47;2.38;;;;;;;;;;6305348;28;20290;-71
2023/11/02 17:30:42;;;;;;;1.95;1.85;;;;;;;;;;6305276;28;20513;-72
2023/11/02 17:33:46;;;;;;;2.50;2.35;;;;;;;;;;6309673;28;20298;-70
2023/11/02 17:36:50;;;;;;;2.67;2.47;;;;;;;;;;6310044;28;20297;-69
2023/11/02 17:39:55;;;;;;;2.40;2.30;;;;;;;;;;6309568;28;20302;-70
2023/11/02 17:43:01;;;;;;;4.13;2.72;;;;;;;;;;6310133;28;20310;-69
2023/11/02 17:46:05;;;;;;;3.08;2.40;;;;;;;;;;6309254;28;20373;-72
2023/11/02 17:49:09;;;;;;;2.85;2.80;;;;;;;;;;6309515;28;20298;-70
2023/11/02 17:52:13;;;;;;;2.78;2.67;;;;;;;;;;6309880;28;20467;-72
2023/11/02 17:55:19;;;;;;;2.97;2.90;;;;;;;;;;6307756;28;20287;-70
2023/11/02 17:58:23;;;;;;;4.32;3.30;;;;;;;;;;6309692;28;20294;-70
2023/11/02 18:01:30;;;;;;;4.05;3.75;;;;;;;;;;6307274;28;20286;-70
2023/11/02 18:04:34;;;;;;;3.55;3.42;;;;;;;;;;6308938;28;20502;-72
2023/11/02 18:07:38;;;;;;;8.75;3.47;;;;;;;;;;6309461;28;20290;-72
2023/11/02 18:10:43;;;;;;;3.30;3.10;;;;;;;;;;6308825;28;20293;-70
2023/11/02 18:13:47;;;;;;;7.32;3.33;;;;;;;;;;6308674;28;20290;-71
2023/11/02 18:16:51;;;;;;;3.08;2.97;;;;;;;;;;6309096;28;20305;-71
2023/11/02 18:19:55;;;;;;;3.42;3.10;;;;;;;;;;6308608;28;20310;-71
2023/11/02 18:22:59;;;;;;;4.75;2.90;;;;;;;;;;6309111;28;20290;-69
2023/11/02 18:26:06;;;;;;;3.97;3.78;;;;;;;;;;6308572;28;20302;-70
2023/11/02 18:29:09;;;;;;;3.47;3.17;;;;;;;;;;6308236;28;20567;-70
2023/11/02 18:32:13;;;;;;;3.80;3.60;;;;;;;;;;6308827;28;20298;-71
2023/11/02 18:35:20;;;;;;;5.75;4.15;;;;;;;;;;6306902;28;20388;-71
2023/11/02 18:38:26;;;;;;;5.47;4.03;;;;;;;;;;6308609;28;20606;-69
2023/11/02 18:41:32;;;;;;;6.25;4.18;;;;;;;;;;6306761;28;20500;-70